Time;durP1;ratioP1;P1;durP2;ratioP2;P2;SDS_P1;SDS_P2;PMS_P1;PMS_P2;Temp;Humidity;BMP_temperature;BMP_pressure;BME280_temperature;BME280_humidity;BME280_pressure;Samples;Min_cycle;Max_cycle;Signal;HPM_P1;HPM_P2
2022/10/12 00:01:44;;;;;;;;;12.33;11.67;;;;;15.52;52.86;-19624.81;4996679;27;46106;-71
2022/10/12 00:04:09;;;;;;;;;9.67;8.67;;;;;15.57;52.65;-19626.03;4993898;27;45836;-70
2022/10/12 00:06:34;;;;;;;;;14.67;12.67;;;;;15.55;52.77;-19625.50;4989330;28;45338;-70
2022/10/12 00:09:00;;;;;;;;;12.33;11.67;;;;;15.54;52.77;-19625.34;4978058;28;45447;-70
2022/10/12 00:11:28;;;;;;;;;10.00;9.33;;;;;15.48;52.71;-19623.75;4967463;28;48225;-70
2022/10/12 00:13:54;;;;;;;;;16.67;12.00;;;;;15.51;52.69;-19624.56;4976797;27;45434;-70
2022/10/12 00:16:22;;;;;;;;;9.00;9.00;;;;;15.46;52.55;-19623.22;4979114;27;45461;-70
2022/10/12 00:18:52;;;;;;;;;10.00;10.00;;;;;15.40;52.65;-19621.75;4965746;27;45555;-71
2022/10/12 00:21:18;;;;;;;;;0.67;0.67;;;;;15.45;52.89;-19622.81;4984302;28;46274;-70
2022/10/12 00:23:45;;;;;;;;;14.00;11.00;;;;;15.42;53.11;-19622.16;5031346;27;45461;-70
2022/10/12 00:26:14;;;;;;;;;8.00;8.00;;;;;15.41;53.10;-19621.88;5002948;27;45362;-70
2022/10/12 00:28:39;;;;;;;;;13.67;11.00;;;;;15.35;53.14;-19620.25;4969492;28;45439;-70
2022/10/12 00:31:13;;;;;;;;;11.67;11.00;;;;;15.37;53.35;-19620.81;4986657;27;47107;-70
2022/10/12 00:33:40;;;;;;;;;14.00;8.67;;;;;15.32;53.27;-19619.59;4969628;27;46086;-70
2022/10/12 00:36:24;;;;;;;;;13.00;12.00;;;;;15.31;53.14;-19619.19;5015361;27;45446;-70
2022/10/12 00:38:51;;;;;;;;;13.67;11.67;;;;;15.22;53.10;-19616.91;4988597;27;45681;-70
2022/10/12 00:41:19;;;;;;;;;13.00;11.00;;;;;15.01;53.48;-19611.41;4990623;28;47167;-71
2022/10/12 00:43:45;;;;;;;;;13.33;12.00;;;;;15.25;53.62;-19617.72;4985529;28;45503;-70
2022/10/12 00:46:17;;;;;;;;;18.00;13.67;;;;;15.24;53.56;-19617.31;4985497;27;45393;-70
2022/10/12 00:48:45;;;;;;;;;14.00;12.67;;;;;15.15;53.81;-19615.16;4960903;28;45534;-70
2022/10/12 00:51:11;;;;;;;;;17.33;14.33;;;;;15.19;53.50;-19616.09;4980584;27;45541;-70
2022/10/12 00:53:49;;;;;;;;;16.00;14.00;;;;;15.09;53.42;-19613.56;4987022;27;45589;-70
2022/10/12 00:56:19;;;;;;;;;17.00;16.33;;;;;15.14;54.00;-19614.75;4989786;28;45468;-69
2022/10/12 00:58:47;;;;;;;;;18.33;16.00;;;;;15.09;53.80;-19613.56;5027389;27;45287;-69
2022/10/12 01:01:13;;;;;;;;;14.00;14.00;;;;;15.08;53.89;-19613.16;4992889;27;45397;-69
2022/10/12 01:03:39;;;;;;;;;17.00;15.67;;;;;15.07;53.85;-19612.88;4977560;27;45463;-69
2022/10/12 01:06:06;;;;;;;;;16.33;16.00;;;;;15.05;53.92;-19612.34;4984993;27;45488;-69
2022/10/12 01:08:31;;;;;;;;;13.33;11.67;;;;;15.01;53.96;-19611.28;4964799;28;45489;-69
2022/10/12 01:10:57;;;;;;;;;10.33;8.67;;;;;14.89;54.03;-19608.19;5048582;27;47031;-69
2022/10/12 01:13:23;;;;;;;;;10.67;9.67;;;;;14.93;53.99;-19609.41;4977824;27;45461;-69
2022/10/12 01:16:08;;;;;;;;;13.00;10.33;;;;;14.90;54.14;-19608.59;5014533;27;45602;-69
2022/10/12 01:18:53;;;;;;;;;12.33;11.33;;;;;14.90;54.02;-19608.59;4988551;27;45586;-69
2022/10/12 01:21:22;;;;;;;;;14.00;12.00;;;;;14.92;54.42;-19609.13;4984117;27;46165;-69
2022/10/12 01:24:00;;;;;;;;;12.67;10.00;;;;;14.90;54.34;-19608.59;4996718;27;45371;-69
2022/10/12 01:26:38;;;;;;;;;14.33;13.00;;;;;14.91;54.29;-19608.72;5009957;27;45484;-70
2022/10/12 01:29:24;;;;;;;;;14.00;14.00;;;;;14.85;54.51;-19607.13;5004841;27;45551;-69
2022/10/12 01:32:02;;;;;;;;;13.00;13.00;;;;;14.73;54.47;-19604.16;4957053;28;46998;-70
2022/10/12 01:34:59;;;;;;;;;16.00;13.00;;;;;14.72;54.52;-19603.88;5001614;27;45334;-70
2022/10/12 01:37:46;;;;;;;;;13.33;12.00;;;;;14.76;54.54;-19604.84;4987125;27;46821;-69
2022/10/12 01:40:19;;;;;;;;;13.33;13.00;;;;;14.77;54.37;-19605.09;4993209;27;45573;-70
2022/10/12 01:42:45;;;;;;;;;13.00;10.67;;;;;14.75;54.67;-19604.56;5003704;27;45383;-69
2022/10/12 01:45:14;;;;;;;;;11.67;10.33;;;;;14.71;54.71;-19603.50;4990707;27;45552;-69
2022/10/12 01:47:43;;;;;;;;;14.33;12.67;;;;;14.65;54.99;-19601.88;4979265;27;45500;-70
2022/10/12 01:50:12;;;;;;;;;9.33;8.67;;;;;14.67;55.12;-19602.56;4987414;27;45455;-70
2022/10/12 01:52:43;;;;;;;;;5.33;5.33;;;;;14.64;54.77;-19601.75;4983376;27;46149;-69
2022/10/12 01:55:21;;;;;;;;;13.33;10.00;;;;;14.68;54.89;-19602.69;4990032;27;45369;-70
2022/10/12 01:57:59;;;;;;;;;9.00;8.00;;;;;14.66;55.17;-19602.28;4994487;27;45473;-70
2022/10/12 02:00:24;;;;;;;;;12.00;10.00;;;;;14.67;55.08;-19602.56;4986614;27;45425;-70
2022/10/12 02:03:03;;;;;;;;;12.00;8.67;;;;;14.63;55.24;-19601.34;5029346;27;46112;-69
2022/10/12 02:05:40;;;;;;;;;10.00;9.67;;;;;14.54;55.14;-19599.19;4985583;27;45435;-70
2022/10/12 02:08:50;;;;;;;;;8.67;8.67;;;;;14.62;55.43;-19601.06;5004645;27;45554;-69
2022/10/12 02:11:18;;;;;;;;;10.00;10.00;;;;;14.60;55.49;-19600.53;5006305;28;45486;-69
2022/10/12 02:13:53;;;;;;;;;10.33;7.33;;;;;14.57;55.34;-19599.88;5003588;28;45682;-70
2022/10/12 02:16:24;;;;;;;;;12.33;10.00;;;;;14.51;55.38;-19598.38;5006533;28;45531;-70
2022/10/12 02:18:53;;;;;;;;;8.67;8.67;;;;;14.53;55.67;-19598.91;5008431;28;45441;-69
2022/10/12 02:21:25;;;;;;;;;9.00;8.00;;;;;14.52;55.50;-19598.66;5004819;28;45495;-69
2022/10/12 02:23:54;;;;;;;;;6.67;6.67;;;;;14.49;55.63;-19597.84;5008734;28;46090;-70
2022/10/12 02:26:20;;;;;;;;;10.00;9.33;;;;;14.51;55.69;-19598.25;4994466;28;45485;-70
2022/10/12 02:28:48;;;;;;;;;9.00;8.00;;;;;14.42;55.63;-19595.84;5005797;28;45654;-70
2022/10/12 02:31:36;;;;;;;;;13.00;10.33;;;;;14.44;55.63;-19596.50;5005907;28;45686;-70
2022/10/12 02:34:10;;;;;;;;;10.67;7.00;;;;;14.43;55.72;-19596.09;5009318;28;46970;-69
2022/10/12 02:36:53;;;;;;;;;9.00;9.00;;;;;14.42;55.99;-19595.97;5010245;28;45412;-70
2022/10/12 02:39:30;;;;;;;;;9.33;8.00;;;;;14.29;56.13;-19592.59;5006143;28;45399;-70
2022/10/12 02:42:08;;;;;;;;;7.33;7.33;;;;;14.36;56.07;-19594.34;5004601;28;45581;-70
2022/10/12 02:44:37;;;;;;;;;10.67;9.67;;;;;14.34;55.95;-19593.81;4999453;28;46426;-70
2022/10/12 02:47:05;;;;;;;;;11.67;9.33;;;;;14.31;56.15;-19593.16;4989802;28;45730;-70
2022/10/12 02:49:34;;;;;;;;;10.00;10.00;;;;;14.19;56.37;-19589.94;4983363;27;45500;-70
2022/10/12 02:52:02;;;;;;;;;8.33;8.00;;;;;14.30;56.52;-19592.88;5000967;28;45666;-70
2022/10/12 02:54:29;;;;;;;;;6.33;4.33;;;;;14.29;56.22;-19592.59;4963680;27;47470;-70
2022/10/12 02:56:55;;;;;;;;;10.33;9.33;;;;;14.28;56.30;-19592.34;4963077;28;45525;-70
2022/10/12 02:59:21;;;;;;;;;11.67;8.33;;;;;14.28;56.65;-19592.19;4990115;28;45373;-70
2022/10/12 03:01:46;;;;;;;;;9.00;9.00;;;;;14.21;56.33;-19590.47;4971545;28;45396;-70
2022/10/12 03:04:11;;;;;;;;;8.00;8.00;;;;;14.21;56.47;-19590.31;4981368;28;48116;-70
2022/10/12 03:06:37;;;;;;;;;12.00;9.33;;;;;14.23;56.32;-19591.00;5008921;27;45434;-70
2022/10/12 03:09:03;;;;;;;;;12.00;10.33;;;;;14.20;56.39;-19590.19;4979711;28;45611;-70
2022/10/12 03:11:30;;;;;;;;;9.33;7.67;;;;;14.17;56.52;-19589.25;4978624;28;45549;-70
2022/10/12 03:13:56;;;;;;;;;9.00;8.00;;;;;14.17;56.42;-19589.25;4974410;28;46313;-70
2022/10/12 03:16:22;;;;;;;;;8.00;8.00;;;;;14.14;56.72;-19588.56;4961004;28;45487;-70
2022/10/12 03:18:48;;;;;;;;;8.33;8.33;;;;;14.09;56.66;-19587.22;4967371;28;45453;-70
2022/10/12 03:21:14;;;;;;;;;9.00;9.00;;;;;14.03;56.75;-19585.63;4974608;28;45490;-70
2022/10/12 03:23:40;;;;;;;;;7.33;7.33;;;;;14.06;56.73;-19586.44;4980955;28;46191;-70
2022/10/12 03:26:05;;;;;;;;;9.00;9.00;;;;;14.02;56.62;-19585.34;4981748;28;45422;-70
2022/10/12 03:28:31;;;;;;;;;7.33;5.00;;;;;14.08;56.86;-19587.09;4967720;28;45386;-70
2022/10/12 03:30:57;;;;;;;;;8.67;8.67;;;;;14.01;56.92;-19585.09;4958214;28;45303;-70
2022/10/12 03:33:23;;;;;;;;;8.00;7.33;;;;;14.06;57.14;-19586.44;4961585;28;46340;-70
2022/10/12 03:35:49;;;;;;;;;9.00;9.00;;;;;14.07;57.00;-19586.84;4965717;28;45533;-69
2022/10/12 03:38:16;;;;;;;;;10.67;9.00;;;;;14.05;57.02;-19586.16;4974696;28;45894;-70
2022/10/12 03:40:41;;;;;;;;;10.00;9.00;;;;;14.04;56.94;-19585.88;4961672;28;45320;-70
2022/10/12 03:43:07;;;;;;;;;9.00;8.00;;;;;14.04;56.90;-19585.88;4993854;28;45385;-69
2022/10/12 03:45:33;;;;;;;;;12.33;8.67;;;;;14.00;56.83;-19584.94;4988320;27;45382;-70
2022/10/12 03:47:58;;;;;;;;;14.00;9.00;;;;;14.00;56.79;-19584.81;4976557;28;45401;-70
2022/10/12 03:50:24;;;;;;;;;5.00;5.00;;;;;13.91;56.94;-19582.66;4978387;28;45604;-69
2022/10/12 03:52:49;;;;;;;;;11.67;10.00;;;;;13.98;56.91;-19584.28;4976518;28;45566;-70
2022/10/12 03:55:15;;;;;;;;;10.00;10.00;;;;;13.99;56.71;-19584.56;4962114;28;45473;-69
2022/10/12 03:57:40;;;;;;;;;10.67;10.67;;;;;13.87;56.76;-19581.59;4981815;27;45508;-70
2022/10/12 04:00:06;;;;;;;;;10.33;10.00;;;;;13.97;56.95;-19584.00;5007150;28;45422;-70
2022/10/12 04:02:31;;;;;;;;;15.33;12.00;;;;;13.93;56.98;-19583.22;4988140;27;45376;-70
2022/10/12 04:04:57;;;;;;;;;9.67;9.33;;;;;13.83;57.04;-19580.38;4974997;27;45501;-71
2022/10/12 04:07:22;;;;;;;;;11.33;10.00;;;;;13.87;57.19;-19581.59;4975371;27;45423;-71
2022/10/12 04:09:47;;;;;;;;;9.33;9.00;;;;;13.81;56.94;-19579.84;4985179;27;45464;-71
2022/10/12 04:12:13;;;;;;;;;15.00;11.67;;;;;13.85;57.21;-19580.91;4983063;28;47014;-72
2022/10/12 04:14:38;;;;;;;;;9.33;9.33;;;;;13.85;57.34;-19580.91;4986471;27;45433;-71
2022/10/12 04:17:04;;;;;;;;;13.33;11.00;;;;;13.83;57.31;-19580.50;4988877;27;45380;-72
2022/10/12 04:19:30;;;;;;;;;10.00;9.67;;;;;13.82;57.05;-19580.13;4981833;27;45357;-72
2022/10/12 04:21:55;;;;;;;;;11.00;9.00;;;;;13.84;57.36;-19580.66;4982734;28;47888;-72
2022/10/12 04:24:20;;;;;;;;;10.67;8.00;;;;;13.85;57.24;-19580.91;4995550;28;45452;-72
2022/10/12 04:26:46;;;;;;;;;10.33;10.00;;;;;13.86;57.40;-19581.19;5003391;27;45777;-72
2022/10/12 04:29:12;;;;;;;;;9.00;9.00;;;;;13.84;57.60;-19580.78;5048048;27;45317;-72
2022/10/12 04:31:38;;;;;;;;;10.00;10.00;;;;;13.83;57.38;-19580.50;5000448;27;46269;-72
2022/10/12 04:34:04;;;;;;;;;6.67;6.00;;;;;13.80;57.49;-19579.56;5002715;27;46225;-72
2022/10/12 04:36:29;;;;;;;;;12.00;11.00;;;;;13.83;57.46;-19580.38;4972608;28;45532;-72
2022/10/12 04:38:54;;;;;;;;;10.00;9.00;;;;;13.81;57.29;-19579.97;4995908;27;45627;-72
2022/10/12 04:41:20;;;;;;;;;11.00;9.00;;;;;13.77;57.27;-19578.91;4979581;27;46054;-72
2022/10/12 04:43:45;;;;;;;;;7.33;6.00;;;;;13.78;57.42;-19579.16;5015717;27;45532;-72
2022/10/12 04:46:10;;;;;;;;;10.00;9.00;;;;;13.77;57.29;-19578.78;5021146;27;45423;-72
2022/10/12 04:48:36;;;;;;;;;10.00;9.67;;;;;13.72;57.41;-19577.69;5018554;27;45478;-72
2022/10/12 04:51:02;;;;;;;;;12.00;11.00;;;;;13.69;57.33;-19576.88;5016006;27;46515;-72
2022/10/12 04:53:28;;;;;;;;;7.00;7.00;;;;;13.68;57.43;-19576.50;5017750;27;45526;-72
2022/10/12 04:55:53;;;;;;;;;16.33;12.00;;;;;13.65;57.56;-19575.69;5005184;27;45414;-73
2022/10/12 04:58:18;;;;;;;;;13.67;11.33;;;;;13.63;57.63;-19575.16;4997668;27;45446;-72
2022/10/12 05:00:45;;;;;;;;;11.00;10.00;;;;;13.55;57.52;-19573.13;4991332;28;45929;-72
2022/10/12 05:03:10;;;;;;;;;8.00;7.67;;;;;13.55;57.81;-19573.00;4993237;27;45515;-76
2022/10/12 05:05:35;;;;;;;;;11.67;11.67;;;;;13.52;57.80;-19572.31;4992220;27;45680;-76
2022/10/12 05:08:02;;;;;;;;;22.33;20.33;;;;;13.50;57.83;-19571.91;5012921;27;45638;-76
2022/10/12 05:10:27;;;;;;;;;15.33;15.33;;;;;13.49;57.89;-19571.66;5006265;28;47639;-76
2022/10/12 05:12:53;;;;;;;;;15.00;15.00;;;;;13.48;58.14;-19571.25;4999635;27;45317;-75
2022/10/12 05:15:18;;;;;;;;;13.00;11.00;;;;;13.28;58.14;-19566.13;4982947;28;45794;-75
2022/10/12 05:17:44;;;;;;;;;10.00;8.33;;;;;13.45;58.15;-19570.44;4989967;27;45406;-74
2022/10/12 05:20:09;;;;;;;;;11.67;9.67;;;;;13.47;58.01;-19571.09;4983449;28;52022;-74
2022/10/12 05:22:35;;;;;;;;;10.33;8.00;;;;;13.47;57.94;-19571.09;4997890;27;45512;-73
2022/10/12 05:25:00;;;;;;;;;12.00;11.00;;;;;13.44;58.02;-19570.31;4990215;27;45611;-74
2022/10/12 05:27:25;;;;;;;;;9.33;9.33;;;;;13.42;58.18;-19569.63;4983989;27;45404;-75
2022/10/12 05:29:51;;;;;;;;;11.67;11.00;;;;;13.40;58.11;-19569.09;4983086;27;45494;-76
2022/10/12 05:32:16;;;;;;;;;10.33;10.33;;;;;13.40;58.20;-19569.09;4974252;27;45338;-75
2022/10/12 05:34:42;;;;;;;;;10.00;9.00;;;;;13.36;58.21;-19568.00;4979692;27;46108;-73
2022/10/12 05:37:08;;;;;;;;;9.67;9.67;;;;;13.36;58.69;-19568.16;4999444;27;45495;-79
2022/10/12 05:39:35;;;;;;;;;10.00;10.00;;;;;13.40;58.42;-19569.09;4983433;27;46135;-76
2022/10/12 05:42:00;;;;;;;;;10.33;8.00;;;;;13.23;58.58;-19564.66;4992510;27;45434;-75
2022/10/12 05:44:25;;;;;;;;;12.33;9.33;;;;;13.36;58.59;-19568.00;4994532;27;45559;-75
2022/10/12 05:46:51;;;;;;;;;10.67;10.00;;;;;13.35;58.70;-19567.88;4976827;28;46378;-75
2022/10/12 05:49:16;;;;;;;;;14.00;12.33;;;;;13.29;58.68;-19566.41;4976250;28;46424;-76
2022/10/12 05:51:42;;;;;;;;;12.33;12.33;;;;;13.27;58.71;-19565.72;4977358;27;45404;-76
2022/10/12 05:54:07;;;;;;;;;15.33;12.67;;;;;13.25;58.80;-19565.19;4998416;27;45491;-77
2022/10/12 05:56:33;;;;;;;;;15.00;13.33;;;;;13.12;58.75;-19561.69;5045097;28;45560;-76
2022/10/12 05:58:58;;;;;;;;;11.67;11.00;;;;;13.25;58.83;-19565.19;4979518;27;45501;-76
2022/10/12 06:01:23;;;;;;;;;10.67;9.00;;;;;13.22;58.82;-19564.50;4961876;28;45557;-76
2022/10/12 06:03:49;;;;;;;;;11.67;10.33;;;;;13.21;59.09;-19564.25;4993924;27;45484;-77
2022/10/12 06:06:15;;;;;;;;;12.00;9.67;;;;;13.13;58.92;-19561.97;4999325;27;46007;-76
2022/10/12 06:08:40;;;;;;;;;11.00;11.00;;;;;13.19;58.77;-19563.56;4996718;27;46240;-76
2022/10/12 06:11:06;;;;;;;;;13.33;10.00;;;;;13.03;58.61;-19559.53;5005838;27;45380;-78
2022/10/12 06:13:31;;;;;;;;;12.67;12.67;;;;;13.18;58.95;-19563.31;4997990;27;45432;-77
2022/10/12 06:15:57;;;;;;;;;13.33;13.33;;;;;13.17;58.74;-19563.16;4980087;27;45543;-81
2022/10/12 06:18:22;;;;;;;;;12.67;12.67;;;;;13.16;58.44;-19562.91;4983209;27;53910;-78
2022/10/12 06:20:51;;;;;;;;;20.00;18.67;;;;;13.16;58.68;-19562.75;4987316;27;45352;-81
2022/10/12 06:23:17;;;;;;;;;20.33;16.00;;;;;13.15;58.72;-19562.63;4975743;27;45476;-79
2022/10/12 06:25:45;;;;;;;;;15.67;14.33;;;;;13.16;58.82;-19562.75;4980531;28;45738;-79
2022/10/12 06:28:11;;;;;;;;;12.67;12.67;;;;;13.08;58.53;-19560.75;4987886;27;46414;-79
2022/10/12 06:30:36;;;;;;;;;15.33;14.00;;;;;13.14;58.69;-19562.38;4985268;28;45488;-78
2022/10/12 06:33:02;;;;;;;;;16.00;15.00;;;;;12.91;58.92;-19556.19;4976708;27;45350;-78
2022/10/12 06:35:27;;;;;;;;;17.33;15.67;;;;;13.13;59.01;-19562.09;4982704;27;45583;-78
2022/10/12 06:37:52;;;;;;;;;17.33;15.00;;;;;13.18;58.58;-19563.31;4978692;27;55243;-78
2022/10/12 06:40:18;;;;;;;;;13.67;13.67;;;;;13.11;58.58;-19561.56;4975715;27;45382;-78
2022/10/12 06:42:43;;;;;;;;;17.00;15.33;;;;;13.20;58.97;-19563.97;4984370;27;45409;-82
2022/10/12 06:45:09;;;;;;;;;17.00;13.67;;;;;13.12;58.40;-19561.69;4975898;27;45448;-80
2022/10/12 06:47:35;;;;;;;;;21.00;17.33;;;;;13.24;58.85;-19564.91;4977960;27;45504;-79
2022/10/12 06:50:00;;;;;;;;;22.67;17.67;;;;;13.24;58.60;-19565.06;4984857;27;45608;-79
2022/10/12 06:52:26;;;;;;;;;19.00;17.67;;;;;13.23;58.63;-19564.78;5002751;27;45812;-79
2022/10/12 06:54:51;;;;;;;;;18.00;17.00;;;;;13.18;58.67;-19563.44;5012780;27;45547;-79
2022/10/12 06:57:16;;;;;;;;;23.67;19.33;;;;;13.21;58.53;-19564.13;5004159;27;45639;-72
2022/10/12 06:59:42;;;;;;;;;24.00;19.33;;;;;13.28;58.85;-19566.00;5000091;27;45369;-72
2022/10/12 07:02:10;;;;;;;;;14.00;12.00;;;;;13.20;58.82;-19563.97;4996383;27;45349;-72
2022/10/12 07:04:35;;;;;;;;;22.00;16.67;;;;;13.28;58.75;-19566.00;5030502;27;45431;-72
2022/10/12 07:07:01;;;;;;;;;17.33;15.33;;;;;13.30;58.69;-19566.66;5027991;27;46568;-72
2022/10/12 07:09:26;;;;;;;;;23.67;18.67;;;;;13.37;58.68;-19568.41;4989950;27;45386;-72
2022/10/12 07:11:51;;;;;;;;;13.67;11.67;;;;;13.37;58.98;-19568.41;5001751;27;45655;-72
2022/10/12 07:14:17;;;;;;;;;19.33;19.00;;;;;13.42;58.87;-19569.63;4991945;28;45545;-72
2022/10/12 07:16:42;;;;;;;;;19.33;15.33;;;;;13.49;58.58;-19571.50;5001630;27;45489;-72
2022/10/12 07:19:07;;;;;;;;;21.00;18.33;;;;;13.49;58.49;-19571.50;4982984;28;45793;-72
2022/10/12 07:21:33;;;;;;;;;18.67;16.00;;;;;13.51;58.51;-19572.19;4995196;27;45421;-72
2022/10/12 07:23:58;;;;;;;;;20.67;19.00;;;;;13.58;58.39;-19573.78;4984992;28;45447;-72
2022/10/12 07:26:23;;;;;;;;;25.00;19.00;;;;;13.65;58.30;-19575.69;5006574;27;46378;-72
2022/10/12 07:28:49;;;;;;;;;14.33;14.33;;;;;13.72;58.20;-19577.56;4982955;28;45500;-72
2022/10/12 07:31:14;;;;;;;;;22.67;17.33;;;;;13.82;58.23;-19580.13;4982404;28;45463;-72
2022/10/12 07:33:40;;;;;;;;;22.00;18.33;;;;;13.92;57.94;-19582.81;4999957;28;45370;-72
2022/10/12 07:36:06;;;;;;;;;19.67;17.33;;;;;13.99;57.87;-19584.56;4985670;28;48176;-72
2022/10/12 07:38:31;;;;;;;;;26.67;20.00;;;;;14.06;57.90;-19586.56;5003402;27;45505;-72
2022/10/12 07:40:59;;;;;;;;;22.00;19.00;;;;;14.03;57.34;-19585.75;4999933;27;45463;-72
2022/10/12 07:43:24;;;;;;;;;21.00;19.67;;;;;14.12;57.52;-19588.03;4991927;27;45439;-72
2022/10/12 07:45:49;;;;;;;;;29.67;27.67;;;;;14.19;57.46;-19589.78;4983013;28;46391;-72
2022/10/12 07:48:15;;;;;;;;;20.33;19.33;;;;;14.28;57.21;-19592.34;5009185;27;45432;-72
2022/10/12 07:50:40;;;;;;;;;18.33;16.00;;;;;14.35;57.37;-19594.09;5000950;28;45336;-72
2022/10/12 07:53:05;;;;;;;;;25.33;21.67;;;;;14.40;56.72;-19595.44;5000371;27;45575;-72
2022/10/12 07:55:31;;;;;;;;;24.33;19.67;;;;;14.41;56.91;-19595.69;4974432;28;48528;-72
2022/10/12 07:57:58;;;;;;;;;20.67;17.33;;;;;14.40;56.95;-19595.44;4984321;27;45399;-79
2022/10/12 08:00:24;;;;;;;;;20.00;18.00;;;;;14.49;56.63;-19597.84;4994180;27;45473;-79
2022/10/12 08:02:49;;;;;;;;;20.67;17.67;;;;;14.41;56.72;-19595.56;4992888;28;45588;-80
2022/10/12 08:05:15;;;;;;;;;21.33;19.33;;;;;14.51;56.65;-19598.38;4993668;27;46527;-79
2022/10/12 08:07:40;;;;;;;;;22.00;20.33;;;;;14.56;56.56;-19599.72;4992977;27;45397;-79
2022/10/12 08:10:06;;;;;;;;;21.33;17.33;;;;;14.61;56.59;-19600.81;4994498;27;45507;-79
2022/10/12 08:12:31;;;;;;;;;22.33;21.67;;;;;14.66;56.49;-19602.28;4994562;27;45518;-79
2022/10/12 08:14:56;;;;;;;;;26.00;21.00;;;;;14.68;56.40;-19602.69;4976481;28;46311;-79
2022/10/12 08:17:22;;;;;;;;;22.67;21.33;;;;;14.67;56.15;-19602.41;4993822;28;45469;-79
2022/10/12 08:19:47;;;;;;;;;23.33;21.67;;;;;14.79;56.24;-19605.63;5063658;27;45348;-78
2022/10/12 08:22:12;;;;;;;;;20.67;19.33;;;;;14.92;56.33;-19609.00;4994204;27;45412;-78
2022/10/12 08:24:38;;;;;;;;;19.33;19.00;;;;;15.04;56.21;-19612.09;4974803;28;48051;-78
2022/10/12 08:27:03;;;;;;;;;18.67;18.67;;;;;15.01;55.52;-19611.41;4993984;27;45370;-78
2022/10/12 08:29:29;;;;;;;;;22.33;21.33;;;;;15.09;55.16;-19613.44;4972951;28;45448;-78
2022/10/12 08:31:54;;;;;;;;;20.67;19.67;;;;;15.05;55.47;-19612.34;4993979;27;45551;-78
2022/10/12 08:34:19;;;;;;;;;20.67;17.33;;;;;15.27;55.03;-19618.25;4993463;27;46176;-78
2022/10/12 08:36:45;;;;;;;;;21.67;18.33;;;;;15.33;54.83;-19619.72;5046985;28;45496;-78
2022/10/12 08:39:10;;;;;;;;;23.00;18.67;;;;;15.33;55.12;-19619.72;4984113;28;45477;-79
2022/10/12 08:42:05;;;;;;;;;18.67;18.67;;;;;15.37;54.87;-19620.81;5066683;27;45560;-78
2022/10/12 08:44:48;;;;;;;;;22.33;22.33;;;;;15.58;54.33;-19626.31;4998788;27;46295;-79
2022/10/12 08:47:19;;;;;;;;;22.00;20.33;;;;;15.67;54.74;-19628.59;4993708;28;45412;-78
2022/10/12 08:49:47;;;;;;;;;20.00;20.00;;;;;15.74;54.25;-19630.47;4993593;27;45773;-78
2022/10/12 08:52:32;;;;;;;;;21.33;19.00;;;;;15.81;54.63;-19632.34;4976137;28;45444;-78
2022/10/12 08:55:05;;;;;;;;;18.33;16.00;;;;;15.92;54.14;-19635.16;5064400;27;46270;-79
2022/10/12 08:57:30;;;;;;;;;23.00;19.00;;;;;16.03;54.37;-19638.25;4980737;27;45302;-79
2022/10/12 08:59:58;;;;;;;;;16.00;14.33;;;;;16.19;53.94;-19642.25;4979844;28;45418;-78
2022/10/12 09:02:41;;;;;;;;;16.00;15.00;;;;;16.33;53.94;-19645.88;4992086;27;45413;-78
2022/10/12 09:05:11;;;;;;;;;17.00;16.33;;;;;16.41;53.02;-19648.03;4993383;27;46565;-78
2022/10/12 09:07:39;;;;;;;;;18.00;17.00;;;;;16.44;52.44;-19648.97;4991729;27;45510;-78
2022/10/12 09:10:09;;;;;;;;;18.00;15.33;;;;;16.59;53.17;-19652.72;4993484;27;45326;-78
2022/10/12 09:12:44;;;;;;;;;21.00;17.33;;;;;16.71;52.76;-19655.78;4993408;27;45564;-78
2022/10/12 09:15:29;;;;;;;;;20.67;15.67;;;;;16.84;52.53;-19659.28;4993297;28;45380;-79
2022/10/12 09:17:57;;;;;;;;;19.00;17.67;;;;;16.99;52.36;-19663.28;4992760;27;45504;-80
2022/10/12 09:20:29;;;;;;;;;21.00;17.33;;;;;17.28;52.27;-19670.78;5032723;27;45393;-78
2022/10/12 09:23:02;;;;;;;;;16.33;15.67;;;;;17.60;51.60;-19679.09;5014086;27;45395;-78
2022/10/12 09:25:27;;;;;;;;;20.67;20.00;;;;;18.06;50.65;-19691.25;4993013;27;45392;-78
2022/10/12 09:28:05;;;;;;;;;15.67;15.00;;;;;18.83;50.37;-19711.19;4992644;27;45521;-78
2022/10/12 09:30:36;;;;;;;;;17.67;14.33;;;;;19.95;48.96;-19740.41;4993095;28;45416;-78
2022/10/12 09:33:11;;;;;;;;;15.67;12.33;;;;;21.05;47.10;-19769.06;4975435;27;45546;-78
2022/10/12 09:35:39;;;;;;;;;16.00;12.67;;;;;22.26;45.01;-19800.47;4992782;27;45741;-78
2022/10/12 09:38:05;;;;;;;;;15.33;15.33;;;;;23.48;42.76;-19832.25;4992896;27;45501;-79
2022/10/12 09:40:31;;;;;;;;;19.67;15.00;;;;;24.63;40.94;-17829.56;4971871;28;45730;-79
2022/10/12 09:43:00;;;;;;;;;17.67;13.67;;;;;25.51;38.87;-13779.34;4986792;27;45359;-79
2022/10/12 09:45:30;;;;;;;;;15.33;15.33;;;;;26.17;37.81;-8351.09;4992640;27;46020;-79
2022/10/12 09:48:07;;;;;;;;;20.33;15.00;;;;;26.81;36.75;-3244.69;4992477;27;45343;-79
2022/10/12 09:50:49;;;;;;;;;21.33;18.00;;;;;27.51;35.83;170.72;4975105;28;45305;-79
2022/10/12 09:53:33;;;;;;;;;15.00;13.67;;;;;28.27;34.96;5994.69;4992891;27;45524;-79
2022/10/12 09:56:21;;;;;;;;;16.67;14.67;;;;;29.20;33.68;11502.06;4992707;28;46109;-79
2022/10/12 09:58:59;;;;;;;;;14.00;14.00;;;;;30.05;32.53;21512.19;4992490;27;45446;-71
2022/10/12 10:01:29;;;;;;;;;14.33;14.33;;;;;30.67;31.40;33225.94;4992472;28;45380;-71
2022/10/12 10:04:28;;;;;;;;;17.00;15.33;;;;;31.32;30.08;39207.47;4992883;27;45388;-71
2022/10/12 10:06:53;;;;;;;;;17.33;17.33;;;;;32.09;29.48;43517.22;4993072;28;48153;-71
2022/10/12 10:09:25;;;;;;;;;15.00;15.00;;;;;32.55;29.27;47092.59;4990750;27;45471;-71
2022/10/12 10:11:50;;;;;;;;;15.67;14.33;;;;;33.07;28.63;48891.84;4992690;28;45371;-71
2022/10/12 10:14:15;;;;;;;;;15.33;14.67;;;;;33.42;27.58;51150.53;4993341;27;45544;-71
2022/10/12 10:16:51;;;;;;;;;14.00;13.00;;;;;33.71;28.03;52637.03;4995357;27;45389;-71
2022/10/12 10:19:23;;;;;;;;;15.00;14.33;;;;;34.15;27.10;54381.91;4995541;27;45288;-71
2022/10/12 10:21:50;;;;;;;;;15.67;15.67;;;;;34.58;27.21;54916.69;4994269;28;45465;-71
2022/10/12 10:24:30;;;;;;;;;14.67;12.33;;;;;34.99;27.03;54903.03;4995875;27;45426;-71
2022/10/12 10:27:02;;;;;;;;;19.67;15.00;;;;;35.32;26.01;57111.91;5031838;27;45367;-71
2022/10/12 10:29:41;;;;;;;;;15.00;12.33;;;;;35.56;25.26;57691.81;5027267;27;45328;-71
2022/10/12 10:32:10;;;;;;;;;19.33;12.33;;;;;35.74;25.57;58354.56;4995379;27;45785;-71
2022/10/12 10:34:36;;;;;;;;;17.33;14.33;;;;;35.96;24.57;58831.84;4995400;27;45551;-71
2022/10/12 10:37:04;;;;;;;;;13.00;13.00;;;;;36.03;25.12;59377.16;4977766;28;47255;-71
2022/10/12 10:39:37;;;;;;;;;12.00;12.00;;;;;36.11;24.22;59734.16;4974172;28;45479;-71
2022/10/12 10:42:19;;;;;;;;;15.33;12.00;;;;;36.10;24.44;60391.94;4994684;27;45335;-71
2022/10/12 10:44:55;;;;;;;;;15.67;14.33;;;;;36.29;24.64;60274.19;4995483;27;45382;-72
2022/10/12 10:47:21;;;;;;;;;10.00;9.00;;;;;36.44;24.67;60217.19;4995164;27;45432;-72
2022/10/12 10:49:54;;;;;;;;;13.67;13.67;;;;;36.68;24.45;60466.91;4977381;28;45352;-71
2022/10/12 10:52:21;;;;;;;;;13.00;11.67;;;;;36.91;24.05;60565.00;4995297;27;45586;-72
2022/10/12 10:54:48;;;;;;;;;10.33;10.00;;;;;37.04;24.04;60552.66;4995287;27;45460;-71
2022/10/12 10:57:20;;;;;;;;;13.00;10.67;;;;;37.09;24.16;60599.66;4994987;27;45368;-78
2022/10/12 10:59:58;;;;;;;;;11.67;11.33;;;;;36.40;24.43;61670.03;4993533;27;45461;-78
2022/10/12 11:02:33;;;;;;;;;10.33;10.33;;;;;35.26;25.61;62541.13;4995234;27;45495;-79
2022/10/12 11:05:12;;;;;;;;;12.67;11.33;;;;;34.06;27.07;63188.69;4995467;27;45291;-80
2022/10/12 11:07:50;;;;;;;;;9.67;9.00;;;;;32.90;27.83;63301.22;4993582;27;46266;-80
2022/10/12 11:10:44;;;;;;;;;2.00;0.33;;;;;31.63;29.82;63374.81;5003818;27;45484;-80
2022/10/12 11:13:24;;;;;;;;;8.00;6.33;;;;;30.63;30.82;63132.56;4994971;27;45763;-78
2022/10/12 11:16:08;;;;;;;;;9.00;7.00;;;;;29.49;32.09;62807.72;4995294;27;45345;-80
2022/10/12 11:18:43;;;;;;;;;9.67;8.33;;;;;28.65;33.28;61806.38;4994774;27;46212;-79
2022/10/12 11:21:21;;;;;;;;;8.67;7.33;;;;;27.85;34.53;60928.09;4994675;27;45315;-78
2022/10/12 11:24:01;;;;;;;;;9.33;6.33;;;;;27.21;35.28;59714.28;4994964;27;45409;-78